sensor_id;sensor_type;location;lat;lon;timestamp;pressure;altitude;pressure_sealevel;temperature;humidity
47710;BME280;33473;51.640;5.892;2023-02-28T00:02:22;103000;;;4.0;48.0
47710;BME280;33473;51.640;5.892;2023-02-28T00:15:42;103000;;;3.8;48.0
47710;BME280;33473;51.640;5.892;2023-02-28T00:29:02;103000;;;3.8;49.0
47710;BME280;33473;51.640;5.892;2023-02-28T00:42:21;103000;;;3.8;49.0
47710;BME280;33473;51.640;5.892;2023-02-28T00:55:41;103000;;;3.8;49.0
47710;BME280;33473;51.640;5.892;2023-02-28T01:09:01;103000;;;3.7;49.0
47710;BME280;33473;51.640;5.892;2023-02-28T01:22:20;103000;;;3.7;49.0
47710;BME280;33473;51.640;5.892;2023-02-28T01:35:40;103000;;;3.7;49.0
47710;BME280;33473;51.640;5.892;2023-02-28T01:49:00;103000;;;4.0;50.0
47710;BME280;33473;51.640;5.892;2023-02-28T02:02:19;103000;;;4.2;49.0
47710;BME280;33473;51.640;5.892;2023-02-28T02:15:39;103000;;;4.2;49.0
47710;BME280;33473;51.640;5.892;2023-02-28T02:28:58;103000;;;4.3;49.0
47710;BME280;33473;51.640;5.892;2023-02-28T02:42:18;103000;;;4.5;49.0
47710;BME280;33473;51.640;5.892;2023-02-28T02:55:38;103000;;;4.7;49.0
47710;BME280;33473;51.640;5.892;2023-02-28T03:08:58;102900;;;5.0;49.0
47710;BME280;33473;51.640;5.892;2023-02-28T03:22:17;103000;;;5.2;49.0
47710;BME280;33473;51.640;5.892;2023-02-28T03:35:37;102900;;;5.4;49.0
47710;BME280;33473;51.640;5.892;2023-02-28T03:48:57;103000;;;5.6;49.0
47710;BME280;33473;51.640;5.892;2023-02-28T04:02:16;102900;;;5.8;48.0
47710;BME280;33473;51.640;5.892;2023-02-28T04:15:36;102900;;;6.0;48.0
47710;BME280;33473;51.640;5.892;2023-02-28T04:28:56;102900;;;5.9;47.0
47710;BME280;33473;51.640;5.892;2023-02-28T04:42:15;102900;;;5.4;47.0
47710;BME280;33473;51.640;5.892;2023-02-28T04:55:35;103000;;;6.1;46.0
47710;BME280;33473;51.640;5.892;2023-02-28T05:08:55;103000;;;6.2;46.0
47710;BME280;33473;51.640;5.892;2023-02-28T05:22:14;103000;;;6.3;46.0
47710;BME280;33473;51.640;5.892;2023-02-28T05:35:34;103000;;;6.1;46.0
47710;BME280;33473;51.640;5.892;2023-02-28T05:48:54;103000;;;6.1;46.0
47710;BME280;33473;51.640;5.892;2023-02-28T06:02:13;103000;;;6.3;46.0
47710;BME280;33473;51.640;5.892;2023-02-28T06:15:33;103000;;;6.1;46.0
47710;BME280;33473;51.640;5.892;2023-02-28T06:28:53;103000;;;6.0;46.0
47710;BME280;33473;51.640;5.892;2023-02-28T06:42:12;103000;;;5.9;46.0
47710;BME280;33473;51.640;5.892;2023-02-28T06:55:32;103000;;;5.5;46.0
47710;BME280;33473;51.640;5.892;2023-02-28T07:08:52;103000;;;5.3;47.0
47710;BME280;33473;51.640;5.892;2023-02-28T07:22:12;103000;;;5.4;47.0
47710;BME280;33473;51.640;5.892;2023-02-28T07:35:31;103000;;;5.6;45.0
47710;BME280;33473;51.640;5.892;2023-02-28T07:48:51;103100;;;6.1;43.0
47710;BME280;33473;51.640;5.892;2023-02-28T08:02:11;103100;;;6.5;42.0
47710;BME280;33473;51.640;5.892;2023-02-28T08:15:30;103100;;;6.9;40.0
47710;BME280;33473;51.640;5.892;2023-02-28T08:28:50;103100;;;7.3;38.0
47710;BME280;33473;51.640;5.892;2023-02-28T08:42:10;103100;;;8.2;36.0
47710;BME280;33473;51.640;5.892;2023-02-28T08:55:29;103100;;;9.8;33.0
47710;BME280;33473;51.640;5.892;2023-02-28T09:08:49;103100;;;10.2;28.0
47710;BME280;33473;51.640;5.892;2023-02-28T09:22:09;103000;;;11.8;28.0
47710;BME280;33473;51.640;5.892;2023-02-28T09:35:28;103000;;;13.1;25.0
47710;BME280;33473;51.640;5.892;2023-02-28T09:48:48;103000;;;12.3;24.0
47710;BME280;33473;51.640;5.892;2023-02-28T10:02:08;103000;;;12.8;22.0
47710;BME280;33473;51.640;5.892;2023-02-28T10:15:27;103000;;;13.3;22.0
47710;BME280;33473;51.640;5.892;2023-02-28T10:28:47;103000;;;12.8;22.0
47710;BME280;33473;51.640;5.892;2023-02-28T10:42:07;103000;;;14.5;22.0
47710;BME280;33473;51.640;5.892;2023-02-28T10:55:26;103000;;;13.9;23.0
47710;BME280;33473;51.640;5.892;2023-02-28T11:08:46;103000;;;13.6;22.0
47710;BME280;33473;51.640;5.892;2023-02-28T11:22:06;103000;;;11.9;23.0
47710;BME280;33473;51.640;5.892;2023-02-28T11:35:25;103000;;;12.7;23.0
47710;BME280;33473;51.640;5.892;2023-02-28T11:48:45;103000;;;13.9;23.0
47710;BME280;33473;51.640;5.892;2023-02-28T12:02:05;103000;;;13.6;23.0
47710;BME280;33473;51.640;5.892;2023-02-28T12:15:25;102900;;;14.4;22.0
47710;BME280;33473;51.640;5.892;2023-02-28T12:28:44;102900;;;14.1;22.0
47710;BME280;33473;51.640;5.892;2023-02-28T12:42:04;102900;;;12.9;22.0
47710;BME280;33473;51.640;5.892;2023-02-28T12:55:24;102900;;;12.1;25.0
47710;BME280;33473;51.640;5.892;2023-02-28T13:08:43;102900;;;12.0;24.0
47710;BME280;33473;51.640;5.892;2023-02-28T13:22:03;102900;;;11.7;26.0
47710;BME280;33473;51.640;5.892;2023-02-28T13:35:23;102900;;;11.2;26.0
47710;BME280;33473;51.640;5.892;2023-02-28T13:48:42;102900;;;11.8;26.0
47710;BME280;33473;51.640;5.892;2023-02-28T14:02:02;102900;;;11.9;26.0
47710;BME280;33473;51.640;5.892;2023-02-28T14:15:22;102900;;;12.3;25.0
47710;BME280;33473;51.640;5.892;2023-02-28T14:28:41;102900;;;11.4;26.0
47710;BME280;33473;51.640;5.892;2023-02-28T14:42:01;102800;;;11.7;26.0
47710;BME280;33473;51.640;5.892;2023-02-28T14:55:21;102900;;;11.3;27.0
47710;BME280;33473;51.640;5.892;2023-02-28T15:08:40;102800;;;11.1;27.0
47710;BME280;33473;51.640;5.892;2023-02-28T15:22:00;102800;;;11.1;28.0
47710;BME280;33473;51.640;5.892;2023-02-28T15:35:20;102800;;;11.0;27.0
47710;BME280;33473;51.640;5.892;2023-02-28T15:48:39;102800;;;11.4;28.0
47710;BME280;33473;51.640;5.892;2023-02-28T16:01:59;102800;;;11.5;26.0
47710;BME280;33473;51.640;5.892;2023-02-28T16:15:19;102800;;;11.3;27.0
47710;BME280;33473;51.640;5.892;2023-02-28T16:28:38;102800;;;11.3;27.0
47710;BME280;33473;51.640;5.892;2023-02-28T16:41:58;102800;;;11.0;28.0
47710;BME280;33473;51.640;5.892;2023-02-28T16:55:18;102900;;;10.9;29.0
47710;BME280;33473;51.640;5.892;2023-02-28T17:08:37;102900;;;10.1;30.0
47710;BME280;33473;51.640;5.892;2023-02-28T17:21:57;102900;;;9.1;31.0
47710;BME280;33473;51.640;5.892;2023-02-28T17:35:17;102900;;;8.3;33.0
47710;BME280;33473;51.640;5.892;2023-02-28T17:48:36;102900;;;7.7;34.0
47710;BME280;33473;51.640;5.892;2023-02-28T18:01:56;102900;;;7.3;34.0
47710;BME280;33473;51.640;5.892;2023-02-28T18:15:16;102900;;;7.0;35.0
47710;BME280;33473;51.640;5.892;2023-02-28T18:28:35;102900;;;6.7;36.0
47710;BME280;33473;51.640;5.892;2023-02-28T18:41:55;102900;;;6.4;36.0
47710;BME280;33473;51.640;5.892;2023-02-28T18:55:15;102900;;;6.1;37.0
47710;BME280;33473;51.640;5.892;2023-02-28T19:08:34;102900;;;5.9;38.0
47710;BME280;33473;51.640;5.892;2023-02-28T19:21:54;102900;;;5.7;38.0
47710;BME280;33473;51.640;5.892;2023-02-28T19:35:14;102900;;;5.5;39.0
47710;BME280;33473;51.640;5.892;2023-02-28T19:48:33;103000;;;5.3;39.0
47710;BME280;33473;51.640;5.892;2023-02-28T20:01:53;103000;;;5.3;39.0
47710;BME280;33473;51.640;5.892;2023-02-28T20:15:13;103000;;;5.1;40.0
47710;BME280;33473;51.640;5.892;2023-02-28T20:28:32;103000;;;5.0;40.0
47710;BME280;33473;51.640;5.892;2023-02-28T20:41:52;103000;;;5.1;40.0
47710;BME280;33473;51.640;5.892;2023-02-28T20:55:12;103000;;;5.1;40.0
47710;BME280;33473;51.640;5.892;2023-02-28T21:08:31;103000;;;5.0;41.0
47710;BME280;33473;51.640;5.892;2023-02-28T21:21:51;103000;;;4.8;41.0
47710;BME280;33473;51.640;5.892;2023-02-28T21:35:11;103000;;;4.8;41.0
47710;BME280;33473;51.640;5.892;2023-02-28T21:48:30;103000;;;4.7;41.0
47710;BME280;33473;51.640;5.892;2023-02-28T22:01:50;103000;;;4.7;41.0
47710;BME280;33473;51.640;5.892;2023-02-28T22:15:10;103000;;;4.5;42.0
47710;BME280;33473;51.640;5.892;2023-02-28T22:28:30;103000;;;4.5;42.0
47710;BME280;33473;51.640;5.892;2023-02-28T22:41:49;103000;;;4.5;42.0
47710;BME280;33473;51.640;5.892;2023-02-28T22:55:09;103000;;;4.3;42.0
47710;BME280;33473;51.640;5.892;2023-02-28T23:08:29;103000;;;4.2;42.0
47710;BME280;33473;51.640;5.892;2023-02-28T23:21:48;103000;;;4.1;42.0
47710;BME280;33473;51.640;5.892;2023-02-28T23:35:08;103000;;;3.8;44.0
47710;BME280;33473;51.640;5.892;2023-02-28T23:48:28;103000;;;4.0;43.0
